Airfield :
LOGIN :

Register | Disclaimer

   EN    FR    IT 

 










Legend :    VFR   Marginal VFR   IFR   Intensive IFR   Very Intensive IFR
Visi :
Ceiling :
>= 8 km
>= 3000ft
5 to 8 km
1000 to 3000 ft
1500m to 5 km
500 to 1000 ft
800 to 1500m
200 to 500 ft
< 800m
< 200 ft
Symbols :   Thunderstorms  Fog  Heavy snow  Heavy precipitations  Wind > 20 kt
SIGMETs :     Misc.  Thunderstorms  Icing  Turbulence  Mountain Waves  Volcanic Ashes







- Airport Elevation : 163 ft
- IATA code : DGX


EGDX - St Athan

CURRENT METAR :
  • 291250Z 26006KT 5000 HZ BKN005 BKN011 16/15 Q1011 YLO1

EXPIRED METARs :
  • 291150Z 21003KT 5000 HZ BKN005 BKN011 16/14 Q1011 YLO1
  • 291050Z 21002KT 5000 HZ BKN007 OVC011 17/16 Q1011 GRN

TAF TAF EGDX
Valid from the 29 at 12:00 until the 29 at 18:00 UTC


291015Z 2912/2918 24005KT 9999 BKN016
TEMPO 2912/2918 BKN010
PROB30
TEMPO 2912/2914 6000 SHRA SCT006 BKN010
PROB30
TEMPO 2916/2918 5000 BR BKN004
No reported NOTAMs for that airfield.



MET'MAP, your aeronautical weather chart ! - Copyright ORBIFLY December 2007 - Disclaimer

ORBIFLY MET'MAP TEAM :

Programming & Development : Alexandra Zaïnal
Concept & Development : Baudouin d'Aumeries
Co-Development & Prog : Marc-Olivier Méhu
Technical & hardware support : Manuel Goepfert

Contact : metmap@orbifly.com




SOURCES & CREDITS :

   NOAA